sensor_id;sensor_type;location;lat;lon;timestamp;temperature;humidity
573;DHT22;271;51.114;13.780;2023-07-31T00:00:17;14.60;6.60
573;DHT22;271;51.114;13.780;2023-07-31T00:03:04;14.60;3.20
573;DHT22;271;51.114;13.780;2023-07-31T00:05:52;14.50;3.00
573;DHT22;271;51.114;13.780;2023-07-31T00:08:40;14.60;1.00
573;DHT22;271;51.114;13.780;2023-07-31T00:11:27;14.50;1.00
573;DHT22;271;51.114;13.780;2023-07-31T00:14:15;14.50;1.00
573;DHT22;271;51.114;13.780;2023-07-31T00:17:05;14.60;1.30
573;DHT22;271;51.114;13.780;2023-07-31T00:19:52;14.70;1.00
573;DHT22;271;51.114;13.780;2023-07-31T00:22:40;14.70;1.00
573;DHT22;271;51.114;13.780;2023-07-31T00:25:28;14.70;1.00
573;DHT22;271;51.114;13.780;2023-07-31T00:28:15;14.70;1.00
573;DHT22;271;51.114;13.780;2023-07-31T00:31:03;14.80;1.00
573;DHT22;271;51.114;13.780;2023-07-31T00:33:52;14.90;1.00
573;DHT22;271;51.114;13.780;2023-07-31T00:36:40;15.00;1.00
573;DHT22;271;51.114;13.780;2023-07-31T00:39:29;15.10;1.00
573;DHT22;271;51.114;13.780;2023-07-31T00:42:17;15.20;1.00
573;DHT22;271;51.114;13.780;2023-07-31T00:45:05;15.30;1.00
573;DHT22;271;51.114;13.780;2023-07-31T00:47:53;15.30;1.00
573;DHT22;271;51.114;13.780;2023-07-31T00:50:43;15.40;1.00
573;DHT22;271;51.114;13.780;2023-07-31T00:53:30;15.40;1.00
573;DHT22;271;51.114;13.780;2023-07-31T00:56:18;15.30;1.00
573;DHT22;271;51.114;13.780;2023-07-31T00:59:06;15.20;1.00
573;DHT22;271;51.114;13.780;2023-07-31T01:01:53;15.00;1.00
573;DHT22;271;51.114;13.780;2023-07-31T01:04:43;14.90;1.00
573;DHT22;271;51.114;13.780;2023-07-31T01:07:38;15.00;1.00
573;DHT22;271;51.114;13.780;2023-07-31T01:10:33;15.00;1.00
573;DHT22;271;51.114;13.780;2023-07-31T01:13:22;14.90;1.00
573;DHT22;271;51.114;13.780;2023-07-31T01:16:11;15.00;1.00
573;DHT22;271;51.114;13.780;2023-07-31T01:18:58;14.80;1.00
573;DHT22;271;51.114;13.780;2023-07-31T01:22:19;14.80;1.00
573;DHT22;271;51.114;13.780;2023-07-31T01:25:25;14.90;1.00
573;DHT22;271;51.114;13.780;2023-07-31T01:28:23;14.80;1.00
573;DHT22;271;51.114;13.780;2023-07-31T01:31:16;14.80;1.00
573;DHT22;271;51.114;13.780;2023-07-31T01:34:04;14.80;1.00
573;DHT22;271;51.114;13.780;2023-07-31T01:36:53;14.90;1.00
573;DHT22;271;51.114;13.780;2023-07-31T01:39:40;15.00;1.00
573;DHT22;271;51.114;13.780;2023-07-31T01:42:28;15.10;1.00
573;DHT22;271;51.114;13.780;2023-07-31T01:45:17;15.20;1.00
573;DHT22;271;51.114;13.780;2023-07-31T01:48:05;15.10;1.00
573;DHT22;271;51.114;13.780;2023-07-31T01:50:53;15.20;1.00
573;DHT22;271;51.114;13.780;2023-07-31T01:53:41;15.20;1.00
573;DHT22;271;51.114;13.780;2023-07-31T01:56:28;15.10;1.00
573;DHT22;271;51.114;13.780;2023-07-31T02:05:29;15.40;1.00
573;DHT22;271;51.114;13.780;2023-07-31T02:08:33;15.50;1.00
573;DHT22;271;51.114;13.780;2023-07-31T02:11:21;15.70;1.00
573;DHT22;271;51.114;13.780;2023-07-31T02:14:08;15.80;1.00
573;DHT22;271;51.114;13.780;2023-07-31T02:16:56;15.90;1.00
573;DHT22;271;51.114;13.780;2023-07-31T02:19:44;15.90;1.00
573;DHT22;271;51.114;13.780;2023-07-31T02:22:33;16.00;1.00
573;DHT22;271;51.114;13.780;2023-07-31T02:25:57;16.20;1.00
573;DHT22;271;51.114;13.780;2023-07-31T02:28:59;16.20;1.00
573;DHT22;271;51.114;13.780;2023-07-31T02:32:01;16.30;1.00
573;DHT22;271;51.114;13.780;2023-07-31T02:34:58;16.30;1.00
573;DHT22;271;51.114;13.780;2023-07-31T02:38:14;16.20;1.00
573;DHT22;271;51.114;13.780;2023-07-31T02:41:02;16.20;1.00
573;DHT22;271;51.114;13.780;2023-07-31T02:43:49;16.20;1.00
573;DHT22;271;51.114;13.780;2023-07-31T02:46:37;16.30;1.00
573;DHT22;271;51.114;13.780;2023-07-31T03:18:38;16.10;1.00
573;DHT22;271;51.114;13.780;2023-07-31T03:28:01;16.20;1.00
573;DHT22;271;51.114;13.780;2023-07-31T03:29:13;16.30;1.00
573;DHT22;271;51.114;13.780;2023-07-31T03:35:50;16.40;1.00
573;DHT22;271;51.114;13.780;2023-07-31T03:38:38;16.50;1.00
573;DHT22;271;51.114;13.780;2023-07-31T03:41:26;16.50;1.00
573;DHT22;271;51.114;13.780;2023-07-31T03:44:13;16.40;1.00
573;DHT22;271;51.114;13.780;2023-07-31T03:47:01;16.40;1.00
573;DHT22;271;51.114;13.780;2023-07-31T03:49:49;16.50;1.00
573;DHT22;271;51.114;13.780;2023-07-31T03:52:38;16.50;1.00
573;DHT22;271;51.114;13.780;2023-07-31T03:55:26;16.60;1.00
573;DHT22;271;51.114;13.780;2023-07-31T03:58:13;16.50;1.00
573;DHT22;271;51.114;13.780;2023-07-31T04:01:01;16.50;1.00
573;DHT22;271;51.114;13.780;2023-07-31T04:03:49;16.50;1.00
573;DHT22;271;51.114;13.780;2023-07-31T04:06:36;16.40;1.00
573;DHT22;271;51.114;13.780;2023-07-31T04:09:25;16.40;1.00
573;DHT22;271;51.114;13.780;2023-07-31T04:12:13;16.40;1.00
573;DHT22;271;51.114;13.780;2023-07-31T04:15:01;16.30;1.00
573;DHT22;271;51.114;13.780;2023-07-31T04:17:48;16.20;1.00
573;DHT22;271;51.114;13.780;2023-07-31T04:20:36;16.30;1.00
573;DHT22;271;51.114;13.780;2023-07-31T04:23:24;16.30;1.00
573;DHT22;271;51.114;13.780;2023-07-31T04:26:13;16.30;1.00
573;DHT22;271;51.114;13.780;2023-07-31T04:29:01;16.30;1.00
573;DHT22;271;51.114;13.780;2023-07-31T04:31:49;16.20;1.00
573;DHT22;271;51.114;13.780;2023-07-31T04:34:36;16.10;1.00
573;DHT22;271;51.114;13.780;2023-07-31T04:37:24;16.00;1.00
573;DHT22;271;51.114;13.780;2023-07-31T04:40:11;15.90;1.00
573;DHT22;271;51.114;13.780;2023-07-31T04:43:01;15.80;1.00
573;DHT22;271;51.114;13.780;2023-07-31T04:45:49;15.60;1.00
573;DHT22;271;51.114;13.780;2023-07-31T04:48:41;15.60;1.00
573;DHT22;271;51.114;13.780;2023-07-31T04:51:45;15.60;1.00
573;DHT22;271;51.114;13.780;2023-07-31T04:54:46;15.60;1.00
573;DHT22;271;51.114;13.780;2023-07-31T04:57:39;15.60;1.00
573;DHT22;271;51.114;13.780;2023-07-31T05:00:31;15.50;1.00
573;DHT22;271;51.114;13.780;2023-07-31T05:06:39;15.50;1.00
573;DHT22;271;51.114;13.780;2023-07-31T05:10:02;15.50;2.10
573;DHT22;271;51.114;13.780;2023-07-31T05:12:50;15.60;3.20
573;DHT22;271;51.114;13.780;2023-07-31T05:15:41;15.60;1.00
573;DHT22;271;51.114;13.780;2023-07-31T05:18:28;15.50;1.00
573;DHT22;271;51.114;13.780;2023-07-31T05:21:16;15.50;1.00
573;DHT22;271;51.114;13.780;2023-07-31T05:24:06;15.50;1.00
573;DHT22;271;51.114;13.780;2023-07-31T05:26:54;15.50;1.00
573;DHT22;271;51.114;13.780;2023-07-31T05:29:47;15.60;1.00
573;DHT22;271;51.114;13.780;2023-07-31T05:33:04;15.50;1.00
573;DHT22;271;51.114;13.780;2023-07-31T05:35:59;15.50;1.00
573;DHT22;271;51.114;13.780;2023-07-31T05:38:53;15.50;2.00
573;DHT22;271;51.114;13.780;2023-07-31T05:41:40;15.50;1.00
573;DHT22;271;51.114;13.780;2023-07-31T05:44:28;15.70;1.00
573;DHT22;271;51.114;13.780;2023-07-31T05:47:16;15.60;1.00
573;DHT22;271;51.114;13.780;2023-07-31T05:50:06;15.60;1.00
573;DHT22;271;51.114;13.780;2023-07-31T05:52:53;15.60;1.00
573;DHT22;271;51.114;13.780;2023-07-31T05:55:41;15.70;1.00
573;DHT22;271;51.114;13.780;2023-07-31T05:58:29;15.70;1.00
573;DHT22;271;51.114;13.780;2023-07-31T06:01:17;15.70;1.00
573;DHT22;271;51.114;13.780;2023-07-31T06:04:04;15.70;1.00
573;DHT22;271;51.114;13.780;2023-07-31T06:06:54;15.70;1.00
573;DHT22;271;51.114;13.780;2023-07-31T06:09:42;15.70;1.00
573;DHT22;271;51.114;13.780;2023-07-31T06:12:29;15.70;1.00
573;DHT22;271;51.114;13.780;2023-07-31T06:15:17;15.80;1.00
573;DHT22;271;51.114;13.780;2023-07-31T06:18:05;15.80;1.00
573;DHT22;271;51.114;13.780;2023-07-31T06:20:54;15.90;1.00
573;DHT22;271;51.114;13.780;2023-07-31T06:23:43;15.90;1.50
573;DHT22;271;51.114;13.780;2023-07-31T06:26:31;16.00;1.00
573;DHT22;271;51.114;13.780;2023-07-31T06:29:19;16.00;1.00
573;DHT22;271;51.114;13.780;2023-07-31T06:32:07;15.90;1.00
573;DHT22;271;51.114;13.780;2023-07-31T06:34:55;16.00;1.00
573;DHT22;271;51.114;13.780;2023-07-31T06:37:42;16.10;1.00
573;DHT22;271;51.114;13.780;2023-07-31T06:40:32;16.10;1.00
573;DHT22;271;51.114;13.780;2023-07-31T06:43:19;16.10;1.00
573;DHT22;271;51.114;13.780;2023-07-31T06:46:07;16.20;1.00
573;DHT22;271;51.114;13.780;2023-07-31T06:48:56;16.30;1.00
573;DHT22;271;51.114;13.780;2023-07-31T06:51:43;16.40;1.00
573;DHT22;271;51.114;13.780;2023-07-31T06:54:31;16.40;1.00
573;DHT22;271;51.114;13.780;2023-07-31T06:57:20;16.30;1.00
573;DHT22;271;51.114;13.780;2023-07-31T07:00:08;16.40;1.00
573;DHT22;271;51.114;13.780;2023-07-31T07:02:56;16.40;1.00
573;DHT22;271;51.114;13.780;2023-07-31T07:05:44;16.60;1.00
573;DHT22;271;51.114;13.780;2023-07-31T07:08:32;16.50;1.20
573;DHT22;271;51.114;13.780;2023-07-31T07:11:19;16.50;1.00
573;DHT22;271;51.114;13.780;2023-07-31T07:14:08;16.40;1.00
573;DHT22;271;51.114;13.780;2023-07-31T07:16:56;16.40;1.70
573;DHT22;271;51.114;13.780;2023-07-31T07:19:44;16.50;2.30
573;DHT22;271;51.114;13.780;2023-07-31T07:22:32;16.50;1.00
573;DHT22;271;51.114;13.780;2023-07-31T07:25:19;16.50;1.00
573;DHT22;271;51.114;13.780;2023-07-31T07:28:07;16.70;1.00
573;DHT22;271;51.114;13.780;2023-07-31T07:33:36;16.90;1.00
573;DHT22;271;51.114;13.780;2023-07-31T07:36:24;16.90;1.00
573;DHT22;271;51.114;13.780;2023-07-31T07:39:12;17.00;1.00
573;DHT22;271;51.114;13.780;2023-07-31T07:41:59;17.00;1.00
573;DHT22;271;51.114;13.780;2023-07-31T07:44:47;17.10;1.00
573;DHT22;271;51.114;13.780;2023-07-31T07:47:35;17.30;1.00
573;DHT22;271;51.114;13.780;2023-07-31T07:50:24;17.40;1.00
573;DHT22;271;51.114;13.780;2023-07-31T07:53:12;17.40;1.00
573;DHT22;271;51.114;13.780;2023-07-31T07:56:00;17.50;1.00
573;DHT22;271;51.114;13.780;2023-07-31T07:58:49;17.60;1.00
573;DHT22;271;51.114;13.780;2023-07-31T08:01:46;17.70;1.00
573;DHT22;271;51.114;13.780;2023-07-31T08:04:33;17.90;1.00
573;DHT22;271;51.114;13.780;2023-07-31T08:07:22;18.00;1.00
573;DHT22;271;51.114;13.780;2023-07-31T08:10:10;18.10;1.00
573;DHT22;271;51.114;13.780;2023-07-31T08:19:09;18.00;1.00
573;DHT22;271;51.114;13.780;2023-07-31T08:22:10;18.10;1.00
573;DHT22;271;51.114;13.780;2023-07-31T08:24:58;18.10;1.00
573;DHT22;271;51.114;13.780;2023-07-31T08:28:14;18.10;1.00
573;DHT22;271;51.114;13.780;2023-07-31T08:31:05;18.30;1.00
573;DHT22;271;51.114;13.780;2023-07-31T08:33:56;18.40;1.00
573;DHT22;271;51.114;13.780;2023-07-31T08:36:45;18.50;1.00
573;DHT22;271;51.114;13.780;2023-07-31T08:39:32;18.60;1.00
573;DHT22;271;51.114;13.780;2023-07-31T08:42:40;18.60;1.00
573;DHT22;271;51.114;13.780;2023-07-31T08:45:50;18.80;1.00
573;DHT22;271;51.114;13.780;2023-07-31T08:48:47;18.70;1.00
573;DHT22;271;51.114;13.780;2023-07-31T08:51:38;18.60;1.00
573;DHT22;271;51.114;13.780;2023-07-31T08:54:36;18.70;1.00
573;DHT22;271;51.114;13.780;2023-07-31T08:57:26;18.60;1.00
573;DHT22;271;51.114;13.780;2023-07-31T09:00:14;18.60;1.00
573;DHT22;271;51.114;13.780;2023-07-31T09:03:06;18.70;1.00
573;DHT22;271;51.114;13.780;2023-07-31T09:06:02;18.70;1.00
573;DHT22;271;51.114;13.780;2023-07-31T09:08:52;18.70;1.00
573;DHT22;271;51.114;13.780;2023-07-31T09:11:49;18.70;1.00
573;DHT22;271;51.114;13.780;2023-07-31T09:14:42;18.70;1.00
573;DHT22;271;51.114;13.780;2023-07-31T09:17:33;18.60;1.00
573;DHT22;271;51.114;13.780;2023-07-31T09:20:22;18.60;1.00
573;DHT22;271;51.114;13.780;2023-07-31T09:23:12;18.60;1.00
573;DHT22;271;51.114;13.780;2023-07-31T09:26:01;18.70;1.00
573;DHT22;271;51.114;13.780;2023-07-31T09:28:52;18.80;1.00
573;DHT22;271;51.114;13.780;2023-07-31T09:32:00;18.70;1.00
573;DHT22;271;51.114;13.780;2023-07-31T09:34:48;18.70;1.00
573;DHT22;271;51.114;13.780;2023-07-31T09:37:36;18.70;1.00
573;DHT22;271;51.114;13.780;2023-07-31T09:40:29;18.70;1.00
573;DHT22;271;51.114;13.780;2023-07-31T09:43:23;18.80;1.00
573;DHT22;271;51.114;13.780;2023-07-31T09:46:14;19.00;1.00
573;DHT22;271;51.114;13.780;2023-07-31T09:49:25;19.00;1.00
573;DHT22;271;51.114;13.780;2023-07-31T09:52:13;19.00;1.00
573;DHT22;271;51.114;13.780;2023-07-31T09:55:05;19.00;1.00
573;DHT22;271;51.114;13.780;2023-07-31T09:57:54;19.00;1.00
573;DHT22;271;51.114;13.780;2023-07-31T10:00:44;18.90;1.00
573;DHT22;271;51.114;13.780;2023-07-31T10:03:32;18.90;1.00
573;DHT22;271;51.114;13.780;2023-07-31T10:06:22;19.00;1.00
573;DHT22;271;51.114;13.780;2023-07-31T10:09:15;19.10;1.00
573;DHT22;271;51.114;13.780;2023-07-31T10:12:06;19.20;1.00
573;DHT22;271;51.114;13.780;2023-07-31T10:14:56;19.30;1.00
573;DHT22;271;51.114;13.780;2023-07-31T10:17:44;19.20;1.00
573;DHT22;271;51.114;13.780;2023-07-31T10:20:32;19.20;1.00
573;DHT22;271;51.114;13.780;2023-07-31T10:23:23;19.20;1.00
573;DHT22;271;51.114;13.780;2023-07-31T10:26:13;19.30;1.00
573;DHT22;271;51.114;13.780;2023-07-31T10:29:01;19.30;1.00
573;DHT22;271;51.114;13.780;2023-07-31T10:31:50;19.40;1.00
573;DHT22;271;51.114;13.780;2023-07-31T10:34:39;19.30;1.00
573;DHT22;271;51.114;13.780;2023-07-31T10:37:29;19.30;1.00
573;DHT22;271;51.114;13.780;2023-07-31T10:40:19;19.40;1.00
573;DHT22;271;51.114;13.780;2023-07-31T10:43:07;19.50;1.00
573;DHT22;271;51.114;13.780;2023-07-31T10:45:57;19.50;1.00
573;DHT22;271;51.114;13.780;2023-07-31T10:48:45;19.70;1.00
573;DHT22;271;51.114;13.780;2023-07-31T10:51:56;19.90;1.00
573;DHT22;271;51.114;13.780;2023-07-31T10:54:46;20.00;1.00
573;DHT22;271;51.114;13.780;2023-07-31T10:57:36;20.10;1.00
573;DHT22;271;51.114;13.780;2023-07-31T11:00:27;20.10;1.00
573;DHT22;271;51.114;13.780;2023-07-31T11:03:16;20.20;1.00
573;DHT22;271;51.114;13.780;2023-07-31T11:06:04;20.30;1.00
573;DHT22;271;51.114;13.780;2023-07-31T11:08:55;20.20;1.00
573;DHT22;271;51.114;13.780;2023-07-31T11:11:44;20.20;1.00
573;DHT22;271;51.114;13.780;2023-07-31T11:14:33;20.30;1.00
573;DHT22;271;51.114;13.780;2023-07-31T11:17:25;20.30;1.00
573;DHT22;271;51.114;13.780;2023-07-31T11:20:12;20.40;1.00
573;DHT22;271;51.114;13.780;2023-07-31T11:23:01;20.50;1.00
573;DHT22;271;51.114;13.780;2023-07-31T11:25:50;20.60;1.00
573;DHT22;271;51.114;13.780;2023-07-31T11:28:37;20.60;1.00
573;DHT22;271;51.114;13.780;2023-07-31T11:31:30;20.50;1.00
573;DHT22;271;51.114;13.780;2023-07-31T11:34:18;20.40;1.00
573;DHT22;271;51.114;13.780;2023-07-31T11:37:07;20.30;1.00
573;DHT22;271;51.114;13.780;2023-07-31T11:40:01;20.20;1.00
573;DHT22;271;51.114;13.780;2023-07-31T11:42:50;20.20;1.00
573;DHT22;271;51.114;13.780;2023-07-31T11:45:38;20.30;1.00
573;DHT22;271;51.114;13.780;2023-07-31T11:48:30;20.20;1.00
573;DHT22;271;51.114;13.780;2023-07-31T11:51:21;20.40;1.00
573;DHT22;271;51.114;13.780;2023-07-31T11:54:09;20.50;1.00
573;DHT22;271;51.114;13.780;2023-07-31T11:56:59;20.70;1.00
573;DHT22;271;51.114;13.780;2023-07-31T11:59:48;21.00;1.00
573;DHT22;271;51.114;13.780;2023-07-31T12:02:50;21.10;1.00
573;DHT22;271;51.114;13.780;2023-07-31T12:05:47;21.20;1.00
573;DHT22;271;51.114;13.780;2023-07-31T12:08:36;21.40;1.00
573;DHT22;271;51.114;13.780;2023-07-31T12:11:24;21.50;1.00
573;DHT22;271;51.114;13.780;2023-07-31T12:14:20;21.70;1.00
573;DHT22;271;51.114;13.780;2023-07-31T12:17:08;21.80;1.00
573;DHT22;271;51.114;13.780;2023-07-31T12:19:56;21.70;1.00
573;DHT22;271;51.114;13.780;2023-07-31T12:22:45;21.80;1.00
573;DHT22;271;51.114;13.780;2023-07-31T12:25:33;21.90;1.00
573;DHT22;271;51.114;13.780;2023-07-31T12:28:22;22.00;1.00
573;DHT22;271;51.114;13.780;2023-07-31T12:31:11;22.20;1.00
573;DHT22;271;51.114;13.780;2023-07-31T12:33:59;22.40;1.00
573;DHT22;271;51.114;13.780;2023-07-31T12:36:47;22.40;1.00
573;DHT22;271;51.114;13.780;2023-07-31T12:39:37;22.40;1.00
573;DHT22;271;51.114;13.780;2023-07-31T12:42:25;22.40;1.00
573;DHT22;271;51.114;13.780;2023-07-31T12:45:12;22.40;1.00
573;DHT22;271;51.114;13.780;2023-07-31T12:48:01;22.30;1.00
573;DHT22;271;51.114;13.780;2023-07-31T12:50:49;22.40;1.00
573;DHT22;271;51.114;13.780;2023-07-31T12:53:39;22.50;1.00
573;DHT22;271;51.114;13.780;2023-07-31T12:56:31;22.60;1.00
573;DHT22;271;51.114;13.780;2023-07-31T12:59:18;22.80;1.00
573;DHT22;271;51.114;13.780;2023-07-31T13:02:09;22.80;1.00
573;DHT22;271;51.114;13.780;2023-07-31T13:04:57;22.80;1.00
573;DHT22;271;51.114;13.780;2023-07-31T13:07:45;22.90;1.00
573;DHT22;271;51.114;13.780;2023-07-31T13:10:32;23.00;1.00
573;DHT22;271;51.114;13.780;2023-07-31T13:13:22;23.00;1.00
573;DHT22;271;51.114;13.780;2023-07-31T13:16:09;22.90;1.00
573;DHT22;271;51.114;13.780;2023-07-31T13:19:00;22.90;1.00
573;DHT22;271;51.114;13.780;2023-07-31T13:21:48;23.00;1.00
573;DHT22;271;51.114;13.780;2023-07-31T13:24:38;23.00;1.00
573;DHT22;271;51.114;13.780;2023-07-31T13:27:26;23.10;1.00
573;DHT22;271;51.114;13.780;2023-07-31T13:30:17;22.90;1.00
573;DHT22;271;51.114;13.780;2023-07-31T13:33:05;23.00;1.00
573;DHT22;271;51.114;13.780;2023-07-31T13:35:54;22.80;1.00
573;DHT22;271;51.114;13.780;2023-07-31T13:38:42;22.70;1.00
573;DHT22;271;51.114;13.780;2023-07-31T13:41:32;22.70;1.00
573;DHT22;271;51.114;13.780;2023-07-31T13:44:20;22.70;1.00
573;DHT22;271;51.114;13.780;2023-07-31T13:47:12;22.80;1.00
573;DHT22;271;51.114;13.780;2023-07-31T13:50:00;22.80;1.00
573;DHT22;271;51.114;13.780;2023-07-31T13:52:51;22.90;1.00
573;DHT22;271;51.114;13.780;2023-07-31T13:55:38;22.90;1.00
573;DHT22;271;51.114;13.780;2023-07-31T13:58:27;23.00;1.00
573;DHT22;271;51.114;13.780;2023-07-31T14:01:14;22.90;1.00
573;DHT22;271;51.114;13.780;2023-07-31T14:04:07;22.80;1.00
573;DHT22;271;51.114;13.780;2023-07-31T14:06:55;22.90;1.00
573;DHT22;271;51.114;13.780;2023-07-31T14:09:44;22.90;1.00
573;DHT22;271;51.114;13.780;2023-07-31T14:12:32;22.90;1.00
573;DHT22;271;51.114;13.780;2023-07-31T14:15:22;22.90;1.00
573;DHT22;271;51.114;13.780;2023-07-31T14:18:10;22.90;1.00
573;DHT22;271;51.114;13.780;2023-07-31T14:20:59;23.10;1.00
573;DHT22;271;51.114;13.780;2023-07-31T14:23:47;23.10;1.00
573;DHT22;271;51.114;13.780;2023-07-31T14:26:37;23.10;1.00
573;DHT22;271;51.114;13.780;2023-07-31T14:29:25;23.00;1.00
573;DHT22;271;51.114;13.780;2023-07-31T14:32:13;22.90;1.00
573;DHT22;271;51.114;13.780;2023-07-31T14:35:00;22.80;1.00
573;DHT22;271;51.114;13.780;2023-07-31T14:37:53;22.80;1.00
573;DHT22;271;51.114;13.780;2023-07-31T14:40:41;22.80;1.00
573;DHT22;271;51.114;13.780;2023-07-31T14:43:29;22.90;1.00
573;DHT22;271;51.114;13.780;2023-07-31T14:46:16;23.00;1.00
573;DHT22;271;51.114;13.780;2023-07-31T14:49:10;23.00;1.00
573;DHT22;271;51.114;13.780;2023-07-31T14:51:58;23.10;1.00
573;DHT22;271;51.114;13.780;2023-07-31T14:54:47;22.90;1.00
573;DHT22;271;51.114;13.780;2023-07-31T14:57:34;22.90;1.00
573;DHT22;271;51.114;13.780;2023-07-31T15:00:24;22.80;1.00
573;DHT22;271;51.114;13.780;2023-07-31T15:03:12;22.80;1.00
573;DHT22;271;51.114;13.780;2023-07-31T15:06:04;22.70;1.00
573;DHT22;271;51.114;13.780;2023-07-31T15:08:54;22.70;1.00
573;DHT22;271;51.114;13.780;2023-07-31T15:11:43;22.70;1.00
573;DHT22;271;51.114;13.780;2023-07-31T15:14:31;22.70;1.00
573;DHT22;271;51.114;13.780;2023-07-31T15:17:18;22.70;1.00
573;DHT22;271;51.114;13.780;2023-07-31T15:20:07;22.70;1.00
573;DHT22;271;51.114;13.780;2023-07-31T15:22:55;22.70;1.00
573;DHT22;271;51.114;13.780;2023-07-31T15:25:43;22.60;1.00
573;DHT22;271;51.114;13.780;2023-07-31T15:28:32;22.60;1.00
573;DHT22;271;51.114;13.780;2023-07-31T15:31:23;22.50;1.00
573;DHT22;271;51.114;13.780;2023-07-31T15:34:12;22.50;1.00
573;DHT22;271;51.114;13.780;2023-07-31T15:37:00;22.50;1.00
573;DHT22;271;51.114;13.780;2023-07-31T15:39:47;22.50;1.00
573;DHT22;271;51.114;13.780;2023-07-31T15:42:35;22.60;1.00
573;DHT22;271;51.114;13.780;2023-07-31T15:45:27;22.60;1.00
573;DHT22;271;51.114;13.780;2023-07-31T15:48:16;22.60;1.00
573;DHT22;271;51.114;13.780;2023-07-31T15:51:04;22.60;1.00
573;DHT22;271;51.114;13.780;2023-07-31T15:53:53;22.60;1.00
573;DHT22;271;51.114;13.780;2023-07-31T15:56:41;22.50;1.00
573;DHT22;271;51.114;13.780;2023-07-31T15:59:28;22.40;1.00
573;DHT22;271;51.114;13.780;2023-07-31T16:02:20;22.30;1.00
573;DHT22;271;51.114;13.780;2023-07-31T16:05:08;22.30;1.00
573;DHT22;271;51.114;13.780;2023-07-31T16:07:56;22.20;1.00
573;DHT22;271;51.114;13.780;2023-07-31T16:10:44;22.10;1.00
573;DHT22;271;51.114;13.780;2023-07-31T16:13:40;22.10;1.00
573;DHT22;271;51.114;13.780;2023-07-31T16:16:28;22.00;1.00
573;DHT22;271;51.114;13.780;2023-07-31T16:19:17;22.00;1.00
573;DHT22;271;51.114;13.780;2023-07-31T16:22:05;21.90;1.00
573;DHT22;271;51.114;13.780;2023-07-31T16:24:53;21.90;1.00
573;DHT22;271;51.114;13.780;2023-07-31T16:27:41;21.90;1.00
573;DHT22;271;51.114;13.780;2023-07-31T16:30:29;21.90;1.00
573;DHT22;271;51.114;13.780;2023-07-31T16:33:17;21.80;1.00
573;DHT22;271;51.114;13.780;2023-07-31T16:36:09;21.90;1.00
573;DHT22;271;51.114;13.780;2023-07-31T16:38:57;21.80;1.00
573;DHT22;271;51.114;13.780;2023-07-31T16:41:48;21.80;1.00
573;DHT22;271;51.114;13.780;2023-07-31T16:44:35;21.80;1.00
573;DHT22;271;51.114;13.780;2023-07-31T16:47:26;21.70;1.00
573;DHT22;271;51.114;13.780;2023-07-31T16:50:14;21.70;1.00
573;DHT22;271;51.114;13.780;2023-07-31T16:53:03;21.70;1.00
573;DHT22;271;51.114;13.780;2023-07-31T16:55:51;21.70;1.00
573;DHT22;271;51.114;13.780;2023-07-31T16:58:42;21.60;1.00
573;DHT22;271;51.114;13.780;2023-07-31T17:01:30;21.60;1.00
573;DHT22;271;51.114;13.780;2023-07-31T17:04:19;21.60;1.00
573;DHT22;271;51.114;13.780;2023-07-31T17:07:07;21.50;1.00
573;DHT22;271;51.114;13.780;2023-07-31T17:09:56;21.50;1.00
573;DHT22;271;51.114;13.780;2023-07-31T17:12:45;21.50;1.00
573;DHT22;271;51.114;13.780;2023-07-31T17:15:33;21.40;1.00
573;DHT22;271;51.114;13.780;2023-07-31T17:18:20;21.40;1.00
573;DHT22;271;51.114;13.780;2023-07-31T17:21:14;21.30;1.00
573;DHT22;271;51.114;13.780;2023-07-31T17:24:02;21.30;1.00
573;DHT22;271;51.114;13.780;2023-07-31T17:26:52;21.30;1.00
573;DHT22;271;51.114;13.780;2023-07-31T17:29:39;21.40;1.00
573;DHT22;271;51.114;13.780;2023-07-31T17:32:27;21.30;1.00
573;DHT22;271;51.114;13.780;2023-07-31T17:35:15;21.20;1.00
573;DHT22;271;51.114;13.780;2023-07-31T17:38:04;21.20;1.00
573;DHT22;271;51.114;13.780;2023-07-31T17:40:52;21.20;1.00
573;DHT22;271;51.114;13.780;2023-07-31T17:43:47;21.20;1.00
573;DHT22;271;51.114;13.780;2023-07-31T17:46:35;21.20;1.00
573;DHT22;271;51.114;13.780;2023-07-31T17:49:23;21.10;1.00
573;DHT22;271;51.114;13.780;2023-07-31T17:52:11;21.10;1.00
573;DHT22;271;51.114;13.780;2023-07-31T17:55:02;21.20;1.00
573;DHT22;271;51.114;13.780;2023-07-31T17:57:50;21.20;1.00
573;DHT22;271;51.114;13.780;2023-07-31T18:00:39;21.20;1.00
573;DHT22;271;51.114;13.780;2023-07-31T18:03:27;21.20;1.00
573;DHT22;271;51.114;13.780;2023-07-31T18:06:17;21.20;1.00
573;DHT22;271;51.114;13.780;2023-07-31T18:09:05;21.10;1.00
573;DHT22;271;51.114;13.780;2023-07-31T18:11:54;21.10;1.00
573;DHT22;271;51.114;13.780;2023-07-31T18:14:43;21.10;1.00
573;DHT22;271;51.114;13.780;2023-07-31T18:17:32;21.20;1.00
573;DHT22;271;51.114;13.780;2023-07-31T18:20:20;21.10;1.00
573;DHT22;271;51.114;13.780;2023-07-31T18:23:07;21.10;1.00
573;DHT22;271;51.114;13.780;2023-07-31T18:25:55;21.10;1.00
573;DHT22;271;51.114;13.780;2023-07-31T18:28:43;21.00;1.00
573;DHT22;271;51.114;13.780;2023-07-31T18:31:31;21.00;1.00
573;DHT22;271;51.114;13.780;2023-07-31T18:34:23;21.00;1.00
573;DHT22;271;51.114;13.780;2023-07-31T18:37:10;21.00;1.00
573;DHT22;271;51.114;13.780;2023-07-31T18:39:58;21.00;1.00
573;DHT22;271;51.114;13.780;2023-07-31T18:42:46;20.90;1.00
573;DHT22;271;51.114;13.780;2023-07-31T18:45:37;20.90;1.00
573;DHT22;271;51.114;13.780;2023-07-31T18:48:24;20.90;1.00
573;DHT22;271;51.114;13.780;2023-07-31T18:51:14;20.80;1.00
573;DHT22;271;51.114;13.780;2023-07-31T18:54:01;20.90;1.00
573;DHT22;271;51.114;13.780;2023-07-31T18:56:49;20.80;1.00
573;DHT22;271;51.114;13.780;2023-07-31T18:59:37;20.80;1.00
573;DHT22;271;51.114;13.780;2023-07-31T19:02:24;20.80;1.00
573;DHT22;271;51.114;13.780;2023-07-31T19:05:12;20.70;1.00
573;DHT22;271;51.114;13.780;2023-07-31T19:08:02;20.80;1.00
573;DHT22;271;51.114;13.780;2023-07-31T19:10:51;20.80;1.00
573;DHT22;271;51.114;13.780;2023-07-31T19:13:39;20.80;1.00
573;DHT22;271;51.114;13.780;2023-07-31T19:16:27;20.70;1.00
573;DHT22;271;51.114;13.780;2023-07-31T19:19:15;20.70;1.00
573;DHT22;271;51.114;13.780;2023-07-31T19:22:03;20.70;1.00
573;DHT22;271;51.114;13.780;2023-07-31T19:24:53;20.80;1.00
573;DHT22;271;51.114;13.780;2023-07-31T19:27:40;20.80;1.00
573;DHT22;271;51.114;13.780;2023-07-31T19:30:28;20.70;1.00
573;DHT22;271;51.114;13.780;2023-07-31T19:33:58;20.70;1.00
573;DHT22;271;51.114;13.780;2023-07-31T19:36:28;20.70;1.00
573;DHT22;271;51.114;13.780;2023-07-31T19:39:16;20.70;1.00
573;DHT22;271;51.114;13.780;2023-07-31T19:42:05;20.70;1.00
573;DHT22;271;51.114;13.780;2023-07-31T19:44:53;20.80;1.00
573;DHT22;271;51.114;13.780;2023-07-31T19:47:41;20.70;1.00
573;DHT22;271;51.114;13.780;2023-07-31T19:50:29;20.70;1.00
573;DHT22;271;51.114;13.780;2023-07-31T19:53:16;20.70;1.00
573;DHT22;271;51.114;13.780;2023-07-31T19:56:04;20.70;1.00
573;DHT22;271;51.114;13.780;2023-07-31T19:58:54;20.70;1.00
573;DHT22;271;51.114;13.780;2023-07-31T20:01:42;20.70;1.00